Weather History for Crestview, FL

Change the Weather History Date:

Monday, November 21, 2011

  Actual Average Record
Temperature  
Mean Temperature 68 °F -  
Max Temperature 80 °F - - ()
Min Temperature 57 °F - - ()
Cooling Degree Days 4    
Growing Degree Days 18 (Base 50)    
Moisture  
Dew Point 60 °F    
Average Humidity 95    
Maximum Humidity 100    
Minimum Humidity 52    
Precipitation  
Precipitation 0.00 in - - ()
Sea Level Pressure  
Sea Level Pressure 30.23 in    
Wind  
Wind Speed 1 mph (East)    
Max Wind Speed 10 mph    
Max Gust Speed -    
Visibility 3 miles    
Events Fog    
T = Trace of Precipitation, MM = Missing Value Source: NWS Daily Summary

Daily Weather History Graph

Daily Weather History Graph

Search for Another Location

Airport:

Trip Planner

Search our weather history database for the weather conditions in past years. The results will help you decide how hot, cold, wet, or windy it might be!

Date:

Astronomy

Nov. 21, 2011 Rise Set
Actual Time 6:17 AM CST 4:46 PM CST
Civil Twilight 5:51 AM CST 5:12 PM CST
Nautical Twilight 5:22 AM CST 5:41 PM CST
Astronomical Twilight 4:53 AM CST 6:10 PM CST
Moon 2:09 AM CST (11/21) 1:56 PM CST (11/21)
Length of Visible Light 11h 20m
Length of Day
10h 29m
Waning Crescent, 17% of the Moon is Illuminated
Nov 21
Waning Crescent
Nov 25
New
Dec 2
First Quarter
Dec 10
Full
Dec 17
Last Quarter

Hourly Weather History & Observations

Time (CST) Temp. Heat Index Dew Point Humidity Pressure Visibility Wind Dir Wind Speed Gust Speed Precip Events Conditions
12:01 AM 60.8 °F - 60.8 °F 100% 30.24 in 0.8 mi Calm Calm - N/A   Clear
12:04 AM 60.8 °F - 60.8 °F 100% 30.24 in 0.5 mi Calm Calm - N/A Fog Fog
12:18 AM 60.8 °F - 60.8 °F 100% 30.24 in 0.8 mi Calm Calm - N/A   Clear
12:20 AM 60.8 °F - 60.8 °F 100% 30.24 in 1.0 mi Calm Calm - N/A   Clear
12:22 AM 60.8 °F - 60.8 °F 100% 30.24 in 1.2 mi Calm Calm - N/A   Clear
12:23 AM 60.8 °F - 60.8 °F 100% 30.24 in 1.5 mi Calm Calm - N/A   Clear
12:27 AM 60.8 °F - 60.8 °F 100% 30.23 in 1.2 mi Calm Calm - N/A   Clear
12:28 AM 60.8 °F - 59.0 °F 94% 30.23 in 1.0 mi Calm Calm - N/A   Clear
12:29 AM 60.8 °F - 59.0 °F 94% 30.23 in 0.8 mi Calm Calm - N/A   Clear
12:31 AM 60.8 °F - 59.0 °F 94% 30.23 in 0.5 mi Calm Calm - N/A Fog Fog
12:36 AM 60.8 °F - 59.0 °F 94% 30.23 in 0.2 mi Calm Calm - N/A Fog Fog
12:39 AM 60.8 °F - 59.0 °F 94% 30.23 in 0.5 mi Calm Calm - N/A Fog Fog
12:51 AM 59.0 °F - 59.0 °F 100% 30.23 in 0.2 mi Calm Calm - N/A Fog Fog
12:55 AM 59.5 °F - 58.5 °F 96% 30.23 in 0.2 mi Calm Calm - N/A Fog Fog
1:00 AM 59.0 °F - 59.0 °F 100% 30.22 in 0.5 mi Calm Calm - N/A Fog Fog
1:24 AM 59.0 °F - 59.0 °F 100% 30.22 in 0.2 mi Calm Calm - N/A Fog Fog
1:29 AM 59.0 °F - 59.0 °F 100% 30.22 in 0.5 mi Calm Calm - N/A Fog Fog
1:35 AM 59.0 °F - 59.0 °F 100% 30.22 in 0.8 mi Calm Calm - N/A   Clear
1:38 AM 57.2 °F - 57.2 °F 100% 30.21 in 0.5 mi Calm Calm - N/A Fog Fog
1:55 AM 59.0 °F - 58.5 °F 98% 30.20 in 0.5 mi Calm Calm - N/A Fog Fog
2:01 AM 60.8 °F - 59.0 °F 94% 30.20 in 0.8 mi Calm Calm - N/A   Clear
2:03 AM 60.8 °F - 60.8 °F 100% 30.20 in 1.0 mi Variable 3.5 mph - N/A   Clear
2:04 AM 60.8 °F - 60.8 °F 100% 30.20 in 1.2 mi Calm Calm - N/A   Clear
2:05 AM 60.8 °F - 60.8 °F 100% 30.20 in 1.8 mi Calm Calm - N/A   Clear
2:06 AM 60.8 °F - 60.8 °F 100% 30.20 in 2.5 mi ESE 3.5 mph - N/A   Clear
2:07 AM 62.6 °F - 60.8 °F 94% 30.20 in 3.0 mi Calm Calm - N/A   Clear
2:55 AM 65.3 °F - 64.9 °F 99% 30.20 in 10.0 mi ESE 3.5 mph - N/A   Clear
3:21 AM 60.8 °F - 59.0 °F 94% 30.21 in 2.5 mi NNW 5.8 mph - N/A   Clear
3:23 AM 59.0 °F - 59.0 °F 100% 30.21 in 2.0 mi NNW 6.9 mph - N/A   Clear
3:25 AM 59.0 °F - 59.0 °F 100% 30.21 in 1.8 mi NNW 6.9 mph - N/A   Clear
3:32 AM 59.0 °F - 57.2 °F 94% 30.21 in 1.2 mi NNW 6.9 mph - N/A   Clear
3:34 AM 59.0 °F - 57.2 °F 94% 30.21 in 1.0 mi North 5.8 mph - N/A   Clear
3:36 AM 59.0 °F - 57.2 °F 94% 30.21 in 0.8 mi North 4.6 mph - N/A   Clear
3:40 AM 59.0 °F - 57.2 °F 94% 30.22 in 0.5 mi North 3.5 mph - N/A Fog Fog
3:49 AM 59.0 °F - 57.2 °F 94% 30.22 in 0.2 mi Calm Calm - N/A Fog Fog
3:55 AM 59.4 °F - 58.8 °F 98% 30.22 in 0.5 mi Calm Calm - N/A Fog Fog
4:11 AM 59.0 °F - 59.0 °F 100% 30.22 in 0.8 mi Calm Calm - N/A   Clear
4:14 AM 59.0 °F - 59.0 °F 100% 30.22 in 0.5 mi Calm Calm - N/A Fog Fog
4:55 AM 57.4 °F - 56.8 °F 98% 30.23 in 0.5 mi Calm Calm - N/A Fog Fog
5:41 AM 57.2 °F - 57.2 °F 100% 30.23 in 0.8 mi Calm Calm - N/A   Clear
5:46 AM 57.2 °F - 57.2 °F 100% 30.24 in 1.0 mi Calm Calm - N/A   Clear
5:49 AM 57.2 °F - 57.2 °F 100% 30.23 in 1.2 mi East 3.5 mph - N/A   Clear
5:55 AM 57.4 °F - 57.0 °F 99% 30.23 in 1.2 mi Calm Calm - N/A   Clear
5:58 AM 59.0 °F - 59.0 °F 100% 30.24 in 1.0 mi Calm Calm - N/A   Clear
6:00 AM 59.0 °F - 59.0 °F 100% 30.24 in 1.2 mi Calm Calm - N/A   Clear
6:04 AM 59.0 °F - 59.0 °F 100% 30.24 in 1.5 mi Calm Calm - N/A   Clear
6:09 AM 59.0 °F - 59.0 °F 100% 30.24 in 1.2 mi Calm Calm - N/A   Clear
6:10 AM 59.0 °F - 59.0 °F 100% 30.24 in 1.0 mi Calm Calm - N/A   Clear
6:12 AM 59.0 °F - 59.0 °F 100% 30.24 in 0.8 mi Calm Calm - N/A   Clear
6:18 AM 59.0 °F - 59.0 °F 100% 30.24 in 1.0 mi Calm Calm - N/A   Clear
6:19 AM 59.0 °F - 59.0 °F 100% 30.24 in 1.2 mi Calm Calm - N/A   Clear
6:20 AM 59.0 °F - 59.0 °F 100% 30.24 in 1.8 mi Calm Calm - N/A   Clear
6:21 AM 59.0 °F - 59.0 °F 100% 30.24 in 3.0 mi Calm Calm - N/A   Clear
6:34 AM 60.8 °F - 60.8 °F 100% 30.25 in 2.5 mi North 3.5 mph - N/A   Clear
6:35 AM 60.8 °F - 60.8 °F 100% 30.25 in 1.5 mi North 3.5 mph - N/A   Clear
6:36 AM 60.8 °F - 60.8 °F 100% 30.25 in 1.0 mi North 3.5 mph - N/A   Clear
6:37 AM 59.0 °F - 59.0 °F 100% 30.26 in 0.8 mi North 4.6 mph - N/A   Clear
6:38 AM 59.0 °F - 59.0 °F 100% 30.26 in 0.5 mi North 4.6 mph - N/A Fog Fog
6:47 AM 57.2 °F - 57.2 °F 100% 30.26 in 0.8 mi Calm Calm - N/A   Clear
6:48 AM 57.2 °F - 57.2 °F 100% 30.26 in 1.2 mi Calm Calm - N/A   Clear
6:49 AM 59.0 °F - 57.2 °F 94% 30.26 in 1.8 mi Calm Calm - N/A   Clear
6:50 AM 59.0 °F - 57.2 °F 94% 30.26 in 2.0 mi Calm Calm - N/A   Clear
6:51 AM 59.0 °F - 57.2 °F 94% 30.26 in 2.5 mi Calm Calm - N/A   Clear
6:52 AM 59.0 °F - 57.2 °F 94% 30.26 in 3.0 mi Calm Calm - N/A   Clear
6:55 AM 58.3 °F - 58.1 °F 99% 30.26 in 3.0 mi Calm Calm - N/A   Clear
6:56 AM 59.0 °F - 57.2 °F 94% 30.26 in 2.5 mi North 3.5 mph - N/A   Clear
6:57 AM 59.0 °F - 59.0 °F 100% 30.26 in 1.8 mi North 3.5 mph - N/A   Clear
6:59 AM 59.0 °F - 59.0 °F 100% 30.27 in 1.2 mi North 3.5 mph - N/A   Clear
7:01 AM 59.0 °F - 59.0 °F 100% 30.27 in 1.0 mi Calm Calm - N/A   Clear
7:03 AM 59.0 °F - 59.0 °F 100% 30.27 in 0.8 mi North 3.5 mph - N/A   Clear
7:28 AM 60.8 °F - 60.8 °F 100% 30.27 in 1.0 mi Calm Calm - N/A   Clear
7:32 AM 60.8 °F - 60.8 °F 100% 30.27 in 1.2 mi Calm Calm - N/A   Clear
7:33 AM 60.8 °F - 60.8 °F 100% 30.27 in 1.5 mi Calm Calm - N/A   Clear
7:35 AM 62.6 °F - 60.8 °F 94% 30.27 in 2.0 mi Calm Calm - N/A   Clear
7:36 AM 62.6 °F - 62.6 °F 100% 30.27 in 2.5 mi Calm Calm - N/A   Clear
7:37 AM 62.6 °F - 62.6 °F 100% 30.27 in 3.0 mi Calm Calm - N/A   Clear
7:55 AM 64.2 °F - 63.9 °F 99% 30.27 in 10.0 mi ESE 4.6 mph - N/A   Clear
8:55 AM 71.2 °F - 71.1 °F 99% 30.28 in 10.0 mi SE 5.8 mph - N/A   Partly Cloudy
9:55 AM 74.5 °F - 70.5 °F 87% 30.27 in 10.0 mi Variable 6.9 mph - N/A   Scattered Clouds
10:55 AM 79.2 °F - 65.3 °F 62% 30.25 in 10.0 mi SE 6.9 mph - N/A   Scattered Clouds
11:55 AM 80.1 °F 81.9 °F 65.1 °F 60% 30.22 in 10.0 mi South 8.1 mph - N/A   Scattered Clouds
12:55 PM 80.4 °F 81.8 °F 63.3 °F 56% 30.19 in 10.0 mi South 8.1 mph - N/A   Scattered Clouds
1:55 PM 80.4 °F 81.4 °F 61.3 °F 52% 30.17 in 10.0 mi South 10.4 mph - N/A   Scattered Clouds
2:55 PM 79.5 °F - 61.9 °F 55% 30.16 in 10.0 mi South 9.2 mph - N/A   Clear
3:55 PM 77.2 °F - 61.5 °F 58% 30.15 in 10.0 mi South 9.2 mph - N/A   Mostly Cloudy
4:55 PM 72.3 °F - 61.5 °F 69% 30.15 in 10.0 mi South 5.8 mph - N/A   Scattered Clouds
5:55 PM 66.7 °F - 61.2 °F 82% 30.16 in 10.0 mi Calm Calm - N/A   Clear
6:55 PM 64.6 °F - 62.2 °F 92% 30.16 in 10.0 mi SSE 4.6 mph - N/A   Clear
7:55 PM 63.0 °F - 61.5 °F 95% 30.16 in 10.0 mi SSE 4.6 mph - N/A   Clear
8:55 PM 63.5 °F - 62.6 °F 97% 30.16 in 10.0 mi SSE 4.6 mph - N/A   Clear
9:55 PM 65.1 °F - 64.6 °F 98% 30.15 in 6.0 mi SE 4.6 mph - N/A   Partly Cloudy
10:40 PM 62.6 °F - 62.6 °F 100% 30.13 in 2.5 mi SE 2.3 mph - N/A   Scattered Clouds
10:55 PM 62.1 °F - 61.5 °F 98% 30.15 in 2.0 mi SE 3.5 mph - N/A   Scattered Clouds
11:23 PM 60.8 °F - 60.8 °F 100% 30.12 in 1.0 mi SE 3.5 mph - N/A   Scattered Clouds